Time;durP1;ratioP1;P1;durP2;ratioP2;P2;SDS_P1;SDS_P2;PMS_P1;PMS_P2;Temp;Humidity;BMP_temperature;BMP_pressure;BME280_temperature;BME280_humidity;BME280_pressure;Samples;Min_cycle;Max_cycle;Signal;HPM_P1;HPM_P2
2023/06/20 00:00:37;;;;;;;9.95;4.78;;;;;;;-147.53;100.00;57128.34;10459692;28;20050;-83
2023/06/20 00:05:39;;;;;;;8.45;4.55;;;;;;;-147.53;100.00;57128.34;10446506;28;20144;-83
2023/06/20 00:10:40;;;;;;;12.52;3.75;;;;;;;-147.53;100.00;57128.34;10450377;28;20041;-83
2023/06/20 00:15:44;;;;;;;13.35;4.07;;;;;;;-147.53;100.00;57128.34;10435860;28;20048;-83
2023/06/20 00:20:46;;;;;;;15.77;4.60;;;;;;;-147.53;100.00;57128.34;10434149;28;20060;-83
2023/06/20 00:25:48;;;;;;;10.43;5.03;;;;;;;-147.53;100.00;57128.34;10449383;28;20461;-83
2023/06/20 00:30:50;;;;;;;10.07;4.53;;;;;;;-147.53;100.00;57128.34;10449337;28;20049;-84
2023/06/20 00:35:52;;;;;;;11.48;5.20;;;;;;;-147.53;100.00;57128.34;10434262;28;20045;-83
2023/06/20 00:40:53;;;;;;;8.68;3.95;;;;;;;-147.53;100.00;57128.34;10440979;28;20041;-84
2023/06/20 00:45:56;;;;;;;15.00;4.65;;;;;;;-147.53;100.00;57128.34;10440645;28;20040;-83
2023/06/20 00:50:58;;;;;;;8.32;4.55;;;;;;;-147.53;100.00;57128.34;10442768;28;20055;-83
2023/06/20 00:56:00;;;;;;;8.35;4.28;;;;;;;-147.53;100.00;57128.34;10455970;28;20057;-85
2023/06/20 01:01:01;;;;;;;10.07;4.25;;;;;;;-147.53;100.00;57128.34;10455208;28;20052;-84
2023/06/20 01:06:27;;;;;;;8.65;5.18;;;;;;;-147.53;100.00;57128.34;10456969;28;20041;-83
2023/06/20 01:12:03;;;;;;;12.80;4.20;;;;;;;-147.53;100.00;57128.34;10436956;28;20041;-83
2023/06/20 01:17:33;;;;;;;8.07;4.32;;;;;;;-147.53;100.00;57128.34;10436628;28;20037;-83
2023/06/20 01:22:57;;;;;;;7.32;3.97;;;;;;;-147.53;100.00;57128.34;10432327;28;20049;-84
2023/06/20 01:28:19;;;;;;;9.48;3.78;;;;;;;-147.53;100.00;57128.34;10455940;28;20387;-83
2023/06/20 01:33:28;;;;;;;8.98;4.50;;;;;;;-147.53;100.00;57128.34;10456893;28;20057;-83
2023/06/20 01:38:33;;;;;;;10.82;4.50;;;;;;;-147.53;100.00;57128.34;10442156;28;20053;-83
2023/06/20 01:43:36;;;;;;;12.73;4.90;;;;;;;-147.53;100.00;57128.34;10445784;28;20053;-83
2023/06/20 01:48:40;;;;;;;10.93;4.80;;;;;;;-147.53;100.00;57128.34;10459462;28;20087;-85
2023/06/20 01:53:43;;;;;;;9.82;4.90;;;;;;;-147.53;100.00;57128.34;10461060;28;20453;-83
2023/06/20 01:58:46;;;;;;;11.00;4.30;;;;;;;-147.53;100.00;57128.34;10443550;28;20075;-84
2023/06/20 02:03:49;;;;;;;10.65;4.13;;;;;;;-147.53;100.00;57128.34;10449625;28;20048;-83
2023/06/20 02:08:54;;;;;;;9.95;4.70;;;;;;;-147.53;100.00;57128.34;10439080;28;20669;-83
2023/06/20 02:13:57;;;;;;;8.20;4.13;;;;;;;-147.53;100.00;57128.34;10441245;28;20052;-84
2023/06/20 02:18:59;;;;;;;10.48;4.57;;;;;;;-147.53;100.00;57128.34;10435490;28;20091;-83
2023/06/20 02:24:02;;;;;;;11.40;5.45;;;;;;;-147.53;100.00;57128.34;10435754;28;20522;-83
2023/06/20 02:29:07;;;;;;;10.32;4.40;;;;;;;-147.53;100.00;57128.34;10443737;28;20036;-84
2023/06/20 02:34:13;;;;;;;10.80;5.00;;;;;;;-147.53;100.00;57128.34;10449547;28;20510;-84
2023/06/20 02:39:15;;;;;;;11.70;5.20;;;;;;;-147.53;100.00;57128.34;10463472;28;20041;-84
2023/06/20 02:44:17;;;;;;;13.57;5.55;;;;;;;-147.53;100.00;57128.34;10454132;28;20048;-84
2023/06/20 02:49:22;;;;;;;12.18;5.85;;;;;;;-147.53;100.00;57128.34;10454965;28;20517;-83
2023/06/20 02:54:50;;;;;;;11.05;5.40;;;;;;;-147.53;100.00;57128.34;10439199;28;20049;-84
2023/06/20 03:00:05;;;;;;;9.93;5.28;;;;;;;-147.53;100.00;57128.34;10445822;28;20099;-84
2023/06/20 03:05:11;;;;;;;12.70;6.07;;;;;;;-147.53;100.00;57128.34;10432572;28;20045;-83
2023/06/20 03:10:13;;;;;;;12.50;6.03;;;;;;;-147.53;100.00;57128.34;10455668;28;20045;-84
2023/06/20 03:15:14;;;;;;;10.65;6.07;;;;;;;-147.53;100.00;57128.34;10432645;28;20045;-83
2023/06/20 03:20:16;;;;;;;9.48;5.32;;;;;;;-147.53;100.00;57128.34;10450733;28;20414;-84
2023/06/20 03:25:18;;;;;;;10.57;5.43;;;;;;;-147.53;100.00;57128.34;10450330;28;20501;-83
2023/06/20 03:30:20;;;;;;;10.88;5.38;;;;;;;-147.53;100.00;57128.34;10452790;28;20143;-84
2023/06/20 03:35:24;;;;;;;14.90;6.60;;;;;;;-147.53;100.00;57128.34;10451144;28;20048;-84
2023/06/20 03:40:26;;;;;;;10.98;5.18;;;;;;;-147.53;100.00;57128.34;10457596;28;20053;-83
2023/06/20 03:45:28;;;;;;;13.55;5.45;;;;;;;-147.53;100.00;57128.34;10444257;28;20811;-82
2023/06/20 03:50:30;;;;;;;12.73;6.68;;;;;;;-147.53;100.00;57128.34;10446585;28;20053;-84
2023/06/20 03:55:32;;;;;;;9.80;5.75;;;;;;;-147.53;100.00;57128.34;10462931;28;20069;-82
2023/06/20 04:00:34;;;;;;;14.65;6.15;;;;;;;-147.53;100.00;57128.34;10446184;28;20049;-82
2023/06/20 04:05:36;;;;;;;9.98;5.20;;;;;;;-147.53;100.00;57128.34;10443110;28;20056;-82
2023/06/20 04:10:37;;;;;;;12.70;6.07;;;;;;;-147.53;100.00;57128.34;10449440;28;20063;-82
2023/06/20 04:15:39;;;;;;;11.52;5.53;;;;;;;-147.53;100.00;57128.34;10430897;28;20056;-83
2023/06/20 04:20:41;;;;;;;13.85;6.30;;;;;;;-147.53;100.00;57128.34;10469783;28;20399;-82
2023/06/20 04:25:43;;;;;;;13.30;6.60;;;;;;;-147.53;100.00;57128.34;10452699;28;20044;-82
2023/06/20 04:30:45;;;;;;;13.38;5.70;;;;;;;-147.53;100.00;57128.34;10451556;28;20041;-83
2023/06/20 04:35:47;;;;;;;12.75;5.32;;;;;;;-147.53;100.00;57128.34;10452923;28;20045;-83
2023/06/20 04:40:50;;;;;;;10.20;4.75;;;;;;;-147.53;100.00;57128.34;10467251;28;20049;-83
2023/06/20 04:45:56;;;;;;;10.00;4.85;;;;;;;-147.53;100.00;57128.34;10466235;28;20348;-82
2023/06/20 04:50:58;;;;;;;16.45;5.30;;;;;;;-147.53;100.00;57128.34;10470224;28;20083;-83
2023/06/20 04:56:01;;;;;;;12.95;5.90;;;;;;;-147.53;100.00;57128.34;10462966;28;20053;-83
2023/06/20 05:01:03;;;;;;;11.77;5.43;;;;;;;-147.53;100.00;57128.34;10458677;28;20152;-82
2023/06/20 05:06:06;;;;;;;12.05;5.28;;;;;;;-147.53;100.00;57128.34;10457087;28;20075;-82
2023/06/20 05:11:08;;;;;;;10.05;4.97;;;;;;;-147.53;100.00;57128.34;10470692;28;20037;-79
2023/06/20 05:16:10;;;;;;;12.90;5.22;;;;;;;-147.53;100.00;57128.34;10445785;28;20037;-78
2023/06/20 05:21:12;;;;;;;14.35;5.88;;;;;;;-147.53;100.00;57128.34;10446027;28;20079;-78
2023/06/20 05:26:13;;;;;;;11.68;4.55;;;;;;;-147.53;100.00;57128.34;10447433;28;20091;-79
2023/06/20 05:31:15;;;;;;;9.98;4.40;;;;;;;-147.53;100.00;57128.34;10445460;28;20037;-79
2023/06/20 05:36:17;;;;;;;10.15;4.78;;;;;;;-147.53;100.00;57128.34;10461723;28;20041;-79
2023/06/20 05:41:18;;;;;;;9.68;4.32;;;;;;;-147.53;100.00;57128.34;10445527;28;20049;-79
2023/06/20 05:46:21;;;;;;;10.63;4.90;;;;;;;-147.53;100.00;57128.34;10432500;28;20411;-79
2023/06/20 05:51:22;;;;;;;9.32;4.57;;;;;;;-147.53;100.00;57128.34;10444422;28;20072;-79
2023/06/20 05:56:24;;;;;;;9.60;4.15;;;;;;;-147.53;100.00;57128.34;10456010;28;20132;-78
2023/06/20 06:01:26;;;;;;;8.32;4.28;;;;;;;-147.53;100.00;57128.34;10444064;28;20045;-82
2023/06/20 06:06:27;;;;;;;8.45;4.30;;;;;;;-147.53;100.00;57128.34;10485021;28;20048;-81
2023/06/20 06:11:30;;;;;;;13.07;5.32;;;;;;;-147.53;100.00;57128.34;10475906;28;20045;-83
2023/06/20 06:16:33;;;;;;;11.55;4.63;;;;;;;-147.53;100.00;57128.34;10469470;28;20117;-81
2023/06/20 06:21:35;;;;;;;8.98;4.25;;;;;;;-147.53;100.00;57128.34;10471758;28;20041;-82
2023/06/20 06:26:37;;;;;;;8.57;4.05;;;;;;;-147.53;100.00;57128.34;10456325;28;20044;-81
2023/06/20 06:31:39;;;;;;;9.35;3.85;;;;;;;-147.53;100.00;57128.34;10479772;28;20056;-82
2023/06/20 06:36:40;;;;;;;8.35;3.78;;;;;;;-147.53;100.00;57128.34;10445765;28;20056;-83
2023/06/20 06:41:44;;;;;;;8.10;3.80;;;;;;;-147.53;100.00;57128.34;10444152;28;20037;-83
2023/06/20 06:46:46;;;;;;;11.55;4.88;;;;;;;-147.53;100.00;57128.34;10466203;28;20044;-82
2023/06/20 06:51:49;;;;;;;8.13;4.00;;;;;;;-147.53;100.00;57128.34;10463022;28;20051;-83
2023/06/20 06:56:52;;;;;;;8.40;4.20;;;;;;;-147.53;100.00;57128.34;10469298;28;20045;-82
2023/06/20 07:01:54;;;;;;;8.32;3.50;;;;;;;-147.53;100.00;57128.34;10468446;28;20048;-81
2023/06/20 07:06:56;;;;;;;10.10;4.70;;;;;;;-147.53;100.00;57128.34;10466149;28;20076;-83
2023/06/20 07:11:57;;;;;;;8.98;4.57;;;;;;;-147.53;100.00;57128.34;10466173;28;20048;-82
2023/06/20 07:16:59;;;;;;;8.70;3.63;;;;;;;-147.53;100.00;57128.34;10464216;28;20045;-83
2023/06/20 07:22:06;;;;;;;9.98;4.45;;;;;;;-147.53;100.00;57128.34;10471730;28;20076;-82
2023/06/20 07:27:08;;;;;;;8.80;4.10;;;;;;;-147.53;100.00;57128.34;10458222;28;20132;-79
2023/06/20 07:32:09;;;;;;;7.68;4.00;;;;;;;-147.53;100.00;57128.34;10458970;28;20679;-82
2023/06/20 07:37:11;;;;;;;10.75;4.60;;;;;;;-147.53;100.00;57128.34;10440546;28;20536;-84
2023/06/20 07:42:13;;;;;;;8.48;4.30;;;;;;;-147.53;100.00;57128.34;10457866;28;20135;-85
2023/06/20 07:47:15;;;;;;;8.10;3.60;;;;;;;-147.53;100.00;57128.34;10421481;28;20048;-86
2023/06/20 07:52:17;;;;;;;7.15;3.90;;;;;;;-147.53;100.00;57128.34;10439943;28;20128;-86
2023/06/20 07:57:19;;;;;;;8.85;4.55;;;;;;;-147.53;100.00;57128.34;10422612;28;20056;-86
2023/06/20 08:02:21;;;;;;;12.00;4.60;;;;;;;-147.53;100.00;57128.34;10423184;28;20522;-86
2023/06/20 08:07:23;;;;;;;9.23;4.38;;;;;;;-147.53;100.00;57128.34;10443096;28;20593;-85
2023/06/20 08:12:26;;;;;;;7.93;3.42;;;;;;;-147.53;100.00;57128.34;10441074;28;20787;-88
2023/06/20 08:17:28;;;;;;;10.50;4.40;;;;;;;-147.53;100.00;57128.34;10449096;28;20080;-85
2023/06/20 08:22:30;;;;;;;9.45;4.38;;;;;;;-147.53;100.00;57128.34;10449804;28;20053;-85
2023/06/20 08:27:34;;;;;;;10.52;4.80;;;;;;;-147.53;100.00;57128.34;10450843;28;20383;-86
2023/06/20 08:32:39;;;;;;;10.45;5.57;;;;;;;-147.53;100.00;57128.34;10443803;28;20052;-86
2023/06/20 08:37:41;;;;;;;11.68;5.88;;;;;;;-147.53;100.00;57128.34;10427534;28;20079;-85
2023/06/20 08:42:43;;;;;;;10.05;4.93;;;;;;;-147.53;100.00;57128.34;10423431;28;20071;-85
2023/06/20 08:47:45;;;;;;;9.18;4.90;;;;;;;-147.53;100.00;57128.34;10442713;28;20048;-84
2023/06/20 08:52:47;;;;;;;9.63;4.93;;;;;;;-147.53;100.00;57128.34;10426842;28;20497;-85
2023/06/20 08:57:51;;;;;;;10.57;4.60;;;;;;;-147.53;100.00;57128.34;10426029;28;20045;-84
2023/06/20 09:02:54;;;;;;;14.98;5.60;;;;;;;-147.53;100.00;57128.34;10434747;28;20049;-85
2023/06/20 09:07:56;;;;;;;10.40;5.22;;;;;;;-147.53;100.00;57128.34;10439340;28;20085;-86
2023/06/20 09:12:58;;;;;;;12.48;5.32;;;;;;;-147.53;100.00;57128.34;10459392;28;20045;-80
2023/06/20 09:18:01;;;;;;;9.32;4.97;;;;;;;-147.53;100.00;57128.34;10455107;28;20105;-80
2023/06/20 09:23:04;;;;;;;12.57;5.30;;;;;;;-147.53;100.00;57128.34;10449844;28;20052;-80
2023/06/20 09:28:13;;;;;;;12.20;5.28;;;;;;;-147.53;100.00;57128.34;10433806;28;20095;-79
2023/06/20 09:33:16;;;;;;;10.50;5.53;;;;;;;-147.53;100.00;57128.34;10446710;28;20550;-78
2023/06/20 09:38:18;;;;;;;12.75;5.85;;;;;;;-147.53;100.00;57128.34;10410062;28;20037;-78
2023/06/20 09:43:24;;;;;;;10.07;4.80;;;;;;;-147.53;100.00;57128.34;10426438;28;20264;-78
2023/06/20 09:48:31;;;;;;;11.13;5.97;;;;;;;-147.53;100.00;57128.34;10440689;28;20041;-78
2023/06/20 09:53:45;;;;;;;9.63;5.38;;;;;;;-147.53;100.00;57128.34;10444726;28;20438;-78
2023/06/20 09:58:47;;;;;;;11.68;5.25;;;;;;;-147.53;100.00;57128.34;10438555;28;20049;-78
2023/06/20 10:03:50;;;;;;;12.45;6.03;;;;;;;-147.53;100.00;57128.34;10425198;28;20119;-78
2023/06/20 10:08:53;;;;;;;10.60;5.13;;;;;;;-147.53;100.00;57128.34;10453072;28;20138;-79
2023/06/20 10:13:55;;;;;;;10.48;5.22;;;;;;;-147.53;100.00;57128.34;10422494;28;20700;-78
2023/06/20 10:18:57;;;;;;;13.10;5.47;;;;;;;-147.53;100.00;57128.34;10437963;28;20422;-77
2023/06/20 10:23:58;;;;;;;11.95;5.50;;;;;;;-147.53;100.00;57128.34;10438025;28;20063;-76
2023/06/20 10:29:01;;;;;;;10.25;5.38;;;;;;;-147.53;100.00;57128.34;10407775;28;20045;-77
2023/06/20 10:34:03;;;;;;;9.02;5.20;;;;;;;-147.53;100.00;57128.34;10435999;28;20495;-77
2023/06/20 10:39:04;;;;;;;10.63;5.38;;;;;;;-147.53;100.00;57128.34;10441396;28;20570;-77
2023/06/20 10:44:08;;;;;;;10.15;5.72;;;;;;;-147.53;100.00;57128.34;10439100;28;20063;-78
2023/06/20 10:49:10;;;;;;;9.40;5.07;;;;;;;-147.53;100.00;57128.34;10452926;28;20084;-78
2023/06/20 10:54:13;;;;;;;10.18;4.57;;;;;;;-147.53;100.00;57128.34;10446342;28;20055;-78
2023/06/20 10:59:18;;;;;;;9.27;5.30;;;;;;;-147.53;100.00;57128.34;10448090;28;20065;-78
2023/06/20 11:04:20;;;;;;;11.18;5.50;;;;;;;-147.53;100.00;57128.34;10436002;28;20541;-78
2023/06/20 11:09:25;;;;;;;13.00;6.45;;;;;;;-147.53;100.00;57128.34;10454930;28;20498;-78
2023/06/20 11:14:27;;;;;;;10.20;5.50;;;;;;;-147.53;100.00;57128.34;10457726;28;20045;-78
2023/06/20 11:19:28;;;;;;;10.10;5.60;;;;;;;-147.53;100.00;57128.34;10453498;28;20805;-78
2023/06/20 11:24:40;;;;;;;10.95;5.40;;;;;;;-147.53;100.00;57128.34;10446434;28;20075;-79
2023/06/20 11:29:42;;;;;;;8.93;4.72;;;;;;;-147.53;100.00;57128.34;10455692;28;20070;-78
2023/06/20 11:34:54;;;;;;;11.38;5.03;;;;;;;-147.53;100.00;57128.34;10438560;28;20055;-79
2023/06/20 11:39:56;;;;;;;10.05;5.60;;;;;;;-147.53;100.00;57128.34;10454098;28;20558;-78
2023/06/20 11:45:09;;;;;;;8.45;4.93;;;;;;;-147.53;100.00;57128.34;10417593;28;20123;-78
2023/06/20 11:50:23;;;;;;;13.05;6.32;;;;;;;-147.53;100.00;57128.34;10400744;28;20115;-79
2023/06/20 11:55:49;;;;;;;10.45;5.00;;;;;;;-147.53;100.00;57128.34;10391383;28;20530;-78
2023/06/20 12:01:04;;;;;;;11.85;5.93;;;;;;;-147.53;100.00;57128.34;10417676;28;20065;-77
2023/06/20 12:06:25;;;;;;;8.52;4.50;;;;;;;-147.53;100.00;57128.34;10386844;28;20465;-79
2023/06/20 12:11:28;;;;;;;8.32;4.90;;;;;;;-147.53;100.00;57128.34;10453630;28;20056;-78
2023/06/20 12:16:31;;;;;;;7.88;4.05;;;;;;;-147.53;100.00;57128.34;10449627;28;20037;-80
2023/06/20 12:21:33;;;;;;;9.45;4.85;;;;;;;-147.53;100.00;57128.34;10438759;28;20104;-79
2023/06/20 12:26:35;;;;;;;7.45;4.10;;;;;;;-147.53;100.00;57128.34;10402025;28;20137;-79
2023/06/20 12:31:37;;;;;;;9.13;4.82;;;;;;;-147.53;100.00;57128.34;10406501;28;20049;-79
2023/06/20 12:36:39;;;;;;;10.65;4.45;;;;;;;-147.53;100.00;57128.34;10413130;28;20046;-79
2023/06/20 12:41:42;;;;;;;7.57;3.65;;;;;;;-147.53;100.00;57128.34;10390681;28;20051;-78
2023/06/20 12:46:44;;;;;;;8.10;3.72;;;;;;;-147.53;100.00;57128.34;10413737;28;20117;-79
2023/06/20 12:51:46;;;;;;;7.25;3.78;;;;;;;-147.53;100.00;57128.34;10458356;28;20063;-78
2023/06/20 12:56:48;;;;;;;8.48;3.83;;;;;;;-147.53;100.00;57128.34;10459604;28;20099;-78
2023/06/20 13:01:50;;;;;;;7.63;3.40;;;;;;;-147.53;100.00;57128.34;10427727;28;20049;-80
2023/06/20 13:06:52;;;;;;;7.78;3.65;;;;;;;-147.53;100.00;57128.34;10384567;28;20049;-80
2023/06/20 13:11:54;;;;;;;8.85;3.17;;;;;;;-147.53;100.00;57128.34;10401473;28;20076;-79
2023/06/20 13:16:58;;;;;;;5.13;2.80;;;;;;;-147.53;100.00;57128.34;10433894;28;20049;-79
2023/06/20 13:22:00;;;;;;;4.13;2.25;;;;;;;-147.53;100.00;57128.34;10456447;28;20539;-80
2023/06/20 13:27:02;;;;;;;6.60;3.10;;;;;;;-147.53;100.00;57128.34;10441995;28;20053;-81
2023/06/20 13:32:05;;;;;;;5.18;2.45;;;;;;;-147.53;100.00;57128.34;10443387;28;20057;-79
2023/06/20 13:37:06;;;;;;;7.00;2.90;;;;;;;-147.53;100.00;57128.34;10417817;28;20060;-80
2023/06/20 13:42:08;;;;;;;6.68;3.15;;;;;;;-147.53;100.00;57128.34;10408468;28;20050;-77
2023/06/20 13:47:10;;;;;;;4.47;2.70;;;;;;;-147.53;100.00;57128.34;10399881;28;20056;-77
2023/06/20 13:52:13;;;;;;;8.35;3.20;;;;;;;-147.53;100.00;57128.34;10434082;28;20116;-79
2023/06/20 13:57:15;;;;;;;7.10;3.47;;;;;;;-147.53;100.00;57128.34;10433979;28;20053;-78
2023/06/20 14:02:17;;;;;;;6.07;3.08;;;;;;;-147.53;100.00;57128.34;10451409;28;20060;-79
2023/06/20 14:07:18;;;;;;;5.80;2.70;;;;;;;-147.53;100.00;57128.34;10461799;28;20156;-78
2023/06/20 14:12:22;;;;;;;6.78;2.75;;;;;;;-147.53;100.00;57128.34;10430904;28;20072;-77
2023/06/20 14:17:24;;;;;;;4.60;2.40;;;;;;;-147.53;100.00;57128.34;10406903;28;20671;-78
2023/06/20 14:22:26;;;;;;;4.07;2.10;;;;;;;-147.53;100.00;57128.34;10408166;28;20049;-78
2023/06/20 14:27:28;;;;;;;3.80;1.92;;;;;;;-147.53;100.00;57128.34;10420589;28;20045;-78
2023/06/20 14:32:29;;;;;;;5.30;2.40;;;;;;;-147.53;100.00;57128.34;10437813;28;20049;-79
2023/06/20 14:37:31;;;;;;;5.15;2.50;;;;;;;-147.53;100.00;57128.34;10452425;28;20041;-79
2023/06/20 14:42:33;;;;;;;4.43;2.22;;;;;;;-147.53;100.00;57128.34;10462011;28;20064;-78
2023/06/20 14:47:35;;;;;;;3.85;2.15;;;;;;;-147.53;100.00;57128.34;10451492;28;20056;-77
2023/06/20 14:52:39;;;;;;;4.63;2.17;;;;;;;-147.53;100.00;57128.34;10446754;28;20057;-77
2023/06/20 14:57:40;;;;;;;4.70;2.45;;;;;;;-147.53;100.00;57128.34;10466176;28;20108;-79
2023/06/20 15:02:43;;;;;;;4.10;2.22;;;;;;;-147.53;100.00;57128.34;10431809;28;20076;-77
2023/06/20 15:07:45;;;;;;;5.10;2.20;;;;;;;-147.53;100.00;57128.34;10478062;28;20499;-78
2023/06/20 15:12:46;;;;;;;5.55;2.58;;;;;;;-147.53;100.00;57128.34;10446231;28;20594;-76
2023/06/20 15:17:48;;;;;;;5.25;2.20;;;;;;;-147.53;100.00;57128.34;10442281;28;20138;-78
2023/06/20 15:22:50;;;;;;;3.58;1.90;;;;;;;-147.53;100.00;57128.34;10438403;28;20108;-78
2023/06/20 15:27:51;;;;;;;4.22;1.92;;;;;;;-147.53;100.00;57128.34;10453295;28;20115;-78
2023/06/20 15:32:53;;;;;;;3.40;2.10;;;;;;;-147.53;100.00;57128.34;10431638;28;20045;-78
2023/06/20 15:37:55;;;;;;;4.05;2.08;;;;;;;-147.53;100.00;57128.34;10437228;28;20469;-77
2023/06/20 15:42:57;;;;;;;5.75;2.65;;;;;;;-147.53;100.00;57128.34;10444878;28;20122;-79
2023/06/20 15:47:58;;;;;;;5.35;2.65;;;;;;;-147.53;100.00;57128.34;10430374;28;20128;-78
2023/06/20 15:53:00;;;;;;;5.70;2.30;;;;;;;-147.53;100.00;57128.34;10429175;28;20095;-78
2023/06/20 15:58:02;;;;;;;3.47;2.17;;;;;;;-147.53;100.00;57128.34;10427959;28;20048;-78
2023/06/20 16:03:05;;;;;;;5.38;2.20;;;;;;;-147.53;100.00;57128.34;10426155;28;20095;-77
2023/06/20 16:08:07;;;;;;;3.95;2.40;;;;;;;-147.53;100.00;57128.34;10451364;28;20102;-78
2023/06/20 16:13:09;;;;;;;5.10;2.50;;;;;;;-147.53;100.00;57128.34;10436430;28;20048;-78
2023/06/20 16:18:25;;;;;;;4.65;2.40;;;;;;;-147.53;100.00;57128.34;10450527;28;20056;-76
2023/06/20 16:23:28;;;;;;;5.32;2.45;;;;;;;-147.53;100.00;57128.34;10431048;28;20135;-78
2023/06/20 16:28:39;;;;;;;5.00;2.45;;;;;;;-147.53;100.00;57128.34;10466250;28;20036;-76
2023/06/20 16:33:41;;;;;;;5.45;2.33;;;;;;;-147.53;100.00;57128.34;10434804;28;20510;-77
2023/06/20 16:38:53;;;;;;;6.53;2.38;;;;;;;-147.53;100.00;57128.34;10461372;28;20570;-78
2023/06/20 16:43:54;;;;;;;4.38;2.35;;;;;;;-147.53;100.00;57128.34;10432080;28;20064;-77
2023/06/20 16:48:56;;;;;;;4.28;2.40;;;;;;;-147.53;100.00;57128.34;10450215;28;20067;-78
2023/06/20 16:53:58;;;;;;;4.35;2.20;;;;;;;-147.53;100.00;57128.34;10450956;28;20059;-78
2023/06/20 16:58:59;;;;;;;4.55;2.35;;;;;;;-147.53;100.00;57128.34;10458397;28;20139;-79
2023/06/20 17:04:04;;;;;;;3.75;1.85;;;;;;;-147.53;100.00;57128.34;10457211;28;20557;-77
2023/06/20 17:09:06;;;;;;;3.40;2.00;;;;;;;-147.53;100.00;57128.34;10453346;28;20529;-78
2023/06/20 17:14:09;;;;;;;3.95;2.00;;;;;;;-147.53;100.00;57128.34;10435657;28;20098;-78
2023/06/20 17:19:11;;;;;;;3.55;2.00;;;;;;;-147.53;100.00;57128.34;10448954;28;20072;-78
2023/06/20 17:24:14;;;;;;;4.68;2.33;;;;;;;-147.53;100.00;57128.34;10434981;28;20075;-78
2023/06/20 17:29:16;;;;;;;3.58;1.90;;;;;;;-147.53;100.00;57128.34;10430974;28;20048;-77
2023/06/20 17:34:18;;;;;;;4.07;2.20;;;;;;;-147.53;100.00;57128.34;10458499;28;20148;-77
2023/06/20 17:39:23;;;;;;;4.82;2.17;;;;;;;-147.53;100.00;57128.34;10453292;28;20149;-77
2023/06/20 17:44:24;;;;;;;4.25;2.05;;;;;;;-147.53;100.00;57128.34;10450786;28;20483;-77
2023/06/20 17:49:26;;;;;;;4.55;2.25;;;;;;;-147.53;100.00;57128.34;10438609;28;20121;-77
2023/06/20 17:54:28;;;;;;;3.33;2.00;;;;;;;-147.53;100.00;57128.34;10446393;28;20049;-77
2023/06/20 17:59:29;;;;;;;2.92;1.60;;;;;;;-147.53;100.00;57128.34;10449053;28;20445;-78
2023/06/20 18:04:31;;;;;;;6.22;2.00;;;;;;;-147.53;100.00;57128.34;10453589;28;20084;-78
2023/06/20 18:09:33;;;;;;;3.55;1.90;;;;;;;-147.53;100.00;57128.34;10428791;28;20111;-77
2023/06/20 18:14:34;;;;;;;4.18;2.15;;;;;;;-147.53;100.00;57128.34;10431870;28;20045;-77
2023/06/20 18:19:36;;;;;;;4.20;2.08;;;;;;;-147.53;100.00;57128.34;10447542;28;20151;-78
2023/06/20 18:24:57;;;;;;;3.65;1.92;;;;;;;-147.53;100.00;57128.34;10428607;28;20421;-78
2023/06/20 18:29:59;;;;;;;3.75;2.15;;;;;;;-147.53;100.00;57128.34;10447225;28;20045;-77
2023/06/20 18:35:01;;;;;;;3.83;1.75;;;;;;;-147.53;100.00;57128.34;10428061;28;20044;-77
2023/06/20 18:40:04;;;;;;;3.47;1.90;;;;;;;-147.53;100.00;57128.34;10449094;28;20045;-78
2023/06/20 18:45:06;;;;;;;4.20;2.10;;;;;;;-147.53;100.00;57128.34;10449908;28;20109;-76
2023/06/20 18:50:08;;;;;;;4.18;2.05;;;;;;;-147.53;100.00;57128.34;10450454;28;20094;-76
2023/06/20 18:55:10;;;;;;;5.40;2.50;;;;;;;-147.53;100.00;57128.34;10432684;28;20052;-77
2023/06/20 19:00:12;;;;;;;5.28;2.22;;;;;;;-147.53;100.00;57128.34;10453923;28;20028;-77
2023/06/20 19:05:14;;;;;;;3.70;1.98;;;;;;;-147.53;100.00;57128.34;10450181;28;20510;-77
2023/06/20 19:10:15;;;;;;;4.90;2.33;;;;;;;-147.53;100.00;57128.34;10430553;28;20043;-76
2023/06/20 19:15:17;;;;;;;6.72;2.40;;;;;;;-147.53;100.00;57128.34;10457758;28;20162;-77
2023/06/20 19:20:19;;;;;;;3.65;2.08;;;;;;;-147.53;100.00;57128.34;10450753;28;20040;-76
2023/06/20 19:25:21;;;;;;;4.57;2.30;;;;;;;-147.53;100.00;57128.34;10440321;28;20052;-76
2023/06/20 19:30:23;;;;;;;5.40;2.58;;;;;;;-147.53;100.00;57128.34;10402904;28;20468;-77
2023/06/20 19:35:24;;;;;;;6.32;2.72;;;;;;;-147.53;100.00;57128.34;10385306;28;20056;-76
2023/06/20 19:40:27;;;;;;;5.47;2.70;;;;;;;-147.53;100.00;57128.34;10468029;28;20132;-77
2023/06/20 19:45:29;;;;;;;6.70;2.88;;;;;;;-147.53;100.00;57128.34;10453366;28;20055;-77
2023/06/20 19:50:35;;;;;;;5.28;2.40;;;;;;;-147.53;100.00;57128.34;10441306;28;20128;-77
2023/06/20 19:55:37;;;;;;;5.65;2.45;;;;;;;-147.53;100.00;57128.34;10445210;28;20044;-77
2023/06/20 20:00:39;;;;;;;4.97;2.53;;;;;;;-147.53;100.00;57128.34;10441933;28;20148;-77
2023/06/20 20:05:40;;;;;;;4.28;2.50;;;;;;;-147.53;100.00;57128.34;10436862;28;20132;-77
2023/06/20 20:10:43;;;;;;;9.70;2.80;;;;;;;-147.53;100.00;57128.34;10442615;28;20534;-77
2023/06/20 20:15:45;;;;;;;5.60;2.13;;;;;;;-147.53;100.00;57128.34;10391143;28;20052;-76
2023/06/20 20:20:47;;;;;;;1.67;1.00;;;;;;;-147.53;100.00;57128.34;10456876;28;20041;-76
2023/06/20 20:25:48;;;;;;;1.88;1.10;;;;;;;-147.53;100.00;57128.34;10427746;28;20166;-76
2023/06/20 20:34:28;;;;;;;1.80;0.90;;;;;;;20.17;80.12;100992.50;10384198;27;20625;-75
2023/06/20 20:39:30;;;;;;;1.00;0.75;;;;;;;19.57;82.81;100981.16;10435099;28;20049;-74
2023/06/20 20:44:33;;;;;;;2.85;1.00;;;;;;;19.46;85.06;100968.97;10433540;28;20049;-74
2023/06/20 20:49:35;;;;;;;2.70;1.13;;;;;;;19.51;86.65;100962.66;10435320;28;20045;-75
2023/06/20 20:54:36;;;;;;;2.42;0.90;;;;;;;19.50;87.81;100955.63;10441899;28;20116;-75
2023/06/20 20:59:38;;;;;;;3.75;1.08;;;;;;;19.57;88.95;100973.19;10434483;28;20056;-75
2023/06/20 21:04:40;;;;;;;4.82;1.60;;;;;;;19.65;89.70;100959.78;10445741;28;20045;-76
2023/06/20 21:09:41;;;;;;;2.00;1.02;;;;;;;19.67;90.06;100952.66;10434578;28;20041;-75
2023/06/20 21:14:43;;;;;;;1.65;1.10;;;;;;;19.64;90.48;100952.72;10434022;28;20423;-75
2023/06/20 21:19:45;;;;;;;3.75;1.35;;;;;;;19.65;90.52;100964.22;10434598;28;20083;-75
2023/06/20 21:24:47;;;;;;;1.38;0.93;;;;;;;19.60;90.96;100957.19;10431947;28;20145;-75
2023/06/20 21:29:49;;;;;;;4.57;1.42;;;;;;;19.66;91.06;100944.72;10433561;28;20068;-74
2023/06/20 21:34:51;;;;;;;3.92;1.35;;;;;;;19.77;91.65;100954.28;10431895;28;20049;-74
2023/06/20 21:39:52;;;;;;;2.97;1.42;;;;;;;19.58;91.79;100928.94;10432840;28;20470;-74
2023/06/20 21:44:54;;;;;;;7.15;1.50;;;;;;;19.66;91.96;100894.25;10409228;28;20046;-75
2023/06/20 21:49:55;;;;;;;2.65;1.38;;;;;;;19.64;92.49;100865.06;10403838;28;20451;-75
2023/06/20 21:54:57;;;;;;;7.00;1.90;;;;;;;19.61;92.37;100871.31;10420755;28;20053;-76
2023/06/20 21:59:59;;;;;;;2.58;1.38;;;;;;;19.52;92.66;100883.91;10387475;28;20045;-74
2023/06/20 22:05:00;;;;;;;4.95;1.42;;;;;;;19.50;92.88;100875.97;10404659;28;20412;-75
2023/06/20 22:10:03;;;;;;;5.20;1.60;;;;;;;19.42;93.11;100867.25;10405470;28;20525;-75
2023/06/20 22:15:06;;;;;;;4.65;1.67;;;;;;;19.46;93.15;100882.22;10419208;28;20073;-75
2023/06/20 22:20:10;;;;;;;3.95;1.70;;;;;;;19.45;93.33;100884.91;10404717;28;20457;-76
2023/06/20 22:25:12;;;;;;;3.67;1.65;;;;;;;19.47;93.37;100881.31;10403575;28;20133;-76
2023/06/20 22:30:14;;;;;;;4.47;1.88;;;;;;;19.55;93.72;100868.78;10402689;28;20092;-75
2023/06/20 22:35:16;;;;;;;3.72;2.00;;;;;;;19.56;93.53;100865.22;10400450;28;20053;-75
2023/06/20 22:40:18;;;;;;;7.22;1.70;;;;;;;19.57;93.69;100884.66;10403943;28;20038;-75